sensor_id;sensor_type;location;lat;lon;timestamp;P1;durP1;ratioP1;P2;durP2;ratioP2
71294;SDS011;59080;31.686;73.862;2022-08-01T00:00:25;7.45;;;3.35;;
71294;SDS011;59080;31.686;73.862;2022-08-01T00:02:52;7.10;;;4.13;;
71294;SDS011;59080;31.686;73.862;2022-08-01T00:05:22;5.05;;;3.88;;
71294;SDS011;59080;31.686;73.862;2022-08-01T00:07:49;7.50;;;4.22;;
71294;SDS011;59080;31.686;73.862;2022-08-01T00:10:18;6.32;;;3.63;;
71294;SDS011;59080;31.686;73.862;2022-08-01T00:12:46;10.43;;;4.30;;
71294;SDS011;59080;31.686;73.862;2022-08-01T00:15:15;6.50;;;3.85;;
71294;SDS011;59080;31.686;73.862;2022-08-01T00:17:45;9.88;;;4.32;;
71294;SDS011;59080;31.686;73.862;2022-08-01T00:20:15;10.10;;;4.80;;
71294;SDS011;59080;31.686;73.862;2022-08-01T00:22:43;8.18;;;4.50;;
71294;SDS011;59080;31.686;73.862;2022-08-01T00:25:11;6.88;;;4.03;;
71294;SDS011;59080;31.686;73.862;2022-08-01T00:27:40;10.75;;;4.75;;
71294;SDS011;59080;31.686;73.862;2022-08-01T00:30:08;10.32;;;4.60;;
71294;SDS011;59080;31.686;73.862;2022-08-01T00:32:37;6.40;;;4.05;;
71294;SDS011;59080;31.686;73.862;2022-08-01T00:35:05;6.55;;;4.28;;
71294;SDS011;59080;31.686;73.862;2022-08-01T00:37:34;11.30;;;4.25;;
71294;SDS011;59080;31.686;73.862;2022-08-01T00:40:02;5.97;;;4.22;;
71294;SDS011;59080;31.686;73.862;2022-08-01T00:42:31;6.43;;;4.13;;
71294;SDS011;59080;31.686;73.862;2022-08-01T00:44:58;6.40;;;3.90;;
71294;SDS011;59080;31.686;73.862;2022-08-01T00:47:27;5.45;;;4.53;;
71294;SDS011;59080;31.686;73.862;2022-08-01T00:49:54;7.72;;;4.40;;
71294;SDS011;59080;31.686;73.862;2022-08-01T00:52:23;8.77;;;4.40;;
71294;SDS011;59080;31.686;73.862;2022-08-01T00:54:51;11.18;;;4.68;;
71294;SDS011;59080;31.686;73.862;2022-08-01T00:57:20;8.23;;;4.45;;
71294;SDS011;59080;31.686;73.862;2022-08-01T00:59:49;9.00;;;4.30;;
71294;SDS011;59080;31.686;73.862;2022-08-01T01:02:21;8.60;;;4.82;;
71294;SDS011;59080;31.686;73.862;2022-08-01T01:04:49;9.40;;;4.47;;
71294;SDS011;59080;31.686;73.862;2022-08-01T01:10:03;8.23;;;4.93;;
71294;SDS011;59080;31.686;73.862;2022-08-01T01:12:54;6.43;;;4.80;;
71294;SDS011;59080;31.686;73.862;2022-08-01T01:15:30;11.63;;;5.18;;
71294;SDS011;59080;31.686;73.862;2022-08-01T01:18:07;9.88;;;5.20;;
71294;SDS011;59080;31.686;73.862;2022-08-01T01:20:40;10.70;;;5.47;;
71294;SDS011;59080;31.686;73.862;2022-08-01T01:23:15;9.90;;;5.63;;
71294;SDS011;59080;31.686;73.862;2022-08-01T01:34:21;11.93;;;4.97;;
71294;SDS011;59080;31.686;73.862;2022-08-01T01:36:52;10.73;;;6.05;;
71294;SDS011;59080;31.686;73.862;2022-08-01T01:39:25;10.30;;;5.60;;
71294;SDS011;59080;31.686;73.862;2022-08-01T01:41:56;6.80;;;4.88;;
71294;SDS011;59080;31.686;73.862;2022-08-01T01:44:27;10.23;;;5.35;;
71294;SDS011;59080;31.686;73.862;2022-08-01T01:46:56;9.45;;;4.90;;
71294;SDS011;59080;31.686;73.862;2022-08-01T01:49:27;9.60;;;5.53;;
71294;SDS011;59080;31.686;73.862;2022-08-01T01:51:57;8.68;;;5.10;;
71294;SDS011;59080;31.686;73.862;2022-08-01T01:54:47;9.77;;;5.63;;
71294;SDS011;59080;31.686;73.862;2022-08-01T01:57:17;9.02;;;5.60;;
71294;SDS011;59080;31.686;73.862;2022-08-01T01:59:46;8.77;;;5.10;;
71294;SDS011;59080;31.686;73.862;2022-08-01T02:02:16;12.98;;;6.82;;
71294;SDS011;59080;31.686;73.862;2022-08-01T02:04:46;10.32;;;5.43;;
71294;SDS011;59080;31.686;73.862;2022-08-01T02:07:19;12.63;;;6.05;;
71294;SDS011;59080;31.686;73.862;2022-08-01T02:09:49;11.98;;;6.53;;
71294;SDS011;59080;31.686;73.862;2022-08-01T02:12:20;16.52;;;7.47;;
71294;SDS011;59080;31.686;73.862;2022-08-01T02:14:49;17.58;;;8.55;;
71294;SDS011;59080;31.686;73.862;2022-08-01T02:17:20;16.38;;;8.45;;
71294;SDS011;59080;31.686;73.862;2022-08-01T02:19:52;19.75;;;10.45;;
71294;SDS011;59080;31.686;73.862;2022-08-01T02:22:32;27.55;;;16.52;;
71294;SDS011;59080;31.686;73.862;2022-08-01T02:25:11;28.83;;;18.70;;
71294;SDS011;59080;31.686;73.862;2022-08-01T02:30:22;32.65;;;18.55;;
71294;SDS011;59080;31.686;73.862;2022-08-01T02:32:59;25.20;;;17.98;;
71294;SDS011;59080;31.686;73.862;2022-08-01T02:35:33;23.35;;;16.90;;
71294;SDS011;59080;31.686;73.862;2022-08-01T02:38:09;34.58;;;22.15;;
71294;SDS011;59080;31.686;73.862;2022-08-01T02:40:41;32.22;;;24.25;;
71294;SDS011;59080;31.686;73.862;2022-08-01T02:43:12;45.92;;;31.23;;
71294;SDS011;59080;31.686;73.862;2022-08-01T02:45:49;50.72;;;30.45;;
71294;SDS011;59080;31.686;73.862;2022-08-01T02:48:25;63.28;;;39.60;;
71294;SDS011;59080;31.686;73.862;2022-08-01T02:50:55;41.78;;;26.02;;
71294;SDS011;59080;31.686;73.862;2022-08-01T02:53:28;32.97;;;22.85;;
71294;SDS011;59080;31.686;73.862;2022-08-01T02:56:05;32.15;;;20.17;;
71294;SDS011;59080;31.686;73.862;2022-08-01T02:58:35;35.28;;;22.42;;
71294;SDS011;59080;31.686;73.862;2022-08-01T03:01:05;39.47;;;22.95;;
71294;SDS011;59080;31.686;73.862;2022-08-01T03:03:36;40.92;;;25.08;;
71294;SDS011;59080;31.686;73.862;2022-08-01T03:06:04;42.58;;;29.70;;
71294;SDS011;59080;31.686;73.862;2022-08-01T03:08:37;39.70;;;24.33;;
71294;SDS011;59080;31.686;73.862;2022-08-01T03:11:08;41.67;;;25.80;;
71294;SDS011;59080;31.686;73.862;2022-08-01T03:13:40;37.38;;;25.63;;
71294;SDS011;59080;31.686;73.862;2022-08-01T03:16:12;36.00;;;24.73;;
71294;SDS011;59080;31.686;73.862;2022-08-01T03:18:42;39.75;;;24.15;;
71294;SDS011;59080;31.686;73.862;2022-08-01T03:21:14;36.30;;;24.75;;
71294;SDS011;59080;31.686;73.862;2022-08-01T03:23:42;33.30;;;23.90;;
71294;SDS011;59080;31.686;73.862;2022-08-01T03:26:12;34.72;;;24.23;;
71294;SDS011;59080;31.686;73.862;2022-08-01T03:28:40;31.70;;;22.50;;
71294;SDS011;59080;31.686;73.862;2022-08-01T03:31:12;34.15;;;21.58;;
71294;SDS011;59080;31.686;73.862;2022-08-01T03:33:42;33.90;;;21.73;;
71294;SDS011;59080;31.686;73.862;2022-08-01T03:36:10;29.63;;;20.58;;
71294;SDS011;59080;31.686;73.862;2022-08-01T03:38:41;29.02;;;20.13;;
71294;SDS011;59080;31.686;73.862;2022-08-01T03:41:18;33.25;;;21.58;;
71294;SDS011;59080;31.686;73.862;2022-08-01T03:43:50;36.85;;;21.80;;
71294;SDS011;59080;31.686;73.862;2022-08-01T03:46:42;30.60;;;20.23;;
71294;SDS011;59080;31.686;73.862;2022-08-01T03:49:26;30.13;;;19.23;;
71294;SDS011;59080;31.686;73.862;2022-08-01T03:52:05;34.75;;;19.30;;
71294;SDS011;59080;31.686;73.862;2022-08-01T03:54:43;27.88;;;18.40;;
71294;SDS011;59080;31.686;73.862;2022-08-01T03:57:15;30.15;;;19.85;;
71294;SDS011;59080;31.686;73.862;2022-08-01T03:59:45;34.40;;;19.65;;
71294;SDS011;59080;31.686;73.862;2022-08-01T04:02:17;38.75;;;20.98;;
71294;SDS011;59080;31.686;73.862;2022-08-01T04:04:46;30.33;;;20.25;;
71294;SDS011;59080;31.686;73.862;2022-08-01T04:07:21;31.40;;;20.63;;
71294;SDS011;59080;31.686;73.862;2022-08-01T04:09:54;28.65;;;20.40;;
71294;SDS011;59080;31.686;73.862;2022-08-01T04:12:23;30.58;;;19.25;;
71294;SDS011;59080;31.686;73.862;2022-08-01T04:14:51;29.63;;;19.58;;
71294;SDS011;59080;31.686;73.862;2022-08-01T04:17:19;33.20;;;19.92;;
71294;SDS011;59080;31.686;73.862;2022-08-01T04:19:47;27.38;;;17.65;;
71294;SDS011;59080;31.686;73.862;2022-08-01T04:22:16;31.33;;;18.92;;
71294;SDS011;59080;31.686;73.862;2022-08-01T04:24:51;33.05;;;18.85;;
71294;SDS011;59080;31.686;73.862;2022-08-01T04:27:28;32.20;;;20.02;;
71294;SDS011;59080;31.686;73.862;2022-08-01T04:30:00;30.05;;;18.30;;
71294;SDS011;59080;31.686;73.862;2022-08-01T04:32:29;39.10;;;19.52;;
71294;SDS011;59080;31.686;73.862;2022-08-01T04:35:05;35.25;;;19.77;;
71294;SDS011;59080;31.686;73.862;2022-08-01T04:37:37;31.58;;;18.92;;
71294;SDS011;59080;31.686;73.862;2022-08-01T04:40:08;35.55;;;20.08;;
71294;SDS011;59080;31.686;73.862;2022-08-01T04:42:40;35.75;;;20.23;;
71294;SDS011;59080;31.686;73.862;2022-08-01T04:45:10;38.58;;;20.38;;
71294;SDS011;59080;31.686;73.862;2022-08-01T04:47:40;43.25;;;20.67;;
71294;SDS011;59080;31.686;73.862;2022-08-01T04:50:09;36.10;;;19.58;;
71294;SDS011;59080;31.686;73.862;2022-08-01T04:52:38;36.50;;;19.77;;
71294;SDS011;59080;31.686;73.862;2022-08-01T04:55:08;34.35;;;19.73;;
71294;SDS011;59080;31.686;73.862;2022-08-01T04:57:39;40.42;;;20.55;;
71294;SDS011;59080;31.686;73.862;2022-08-01T05:00:10;38.63;;;19.77;;
71294;SDS011;59080;31.686;73.862;2022-08-01T05:02:38;36.47;;;20.48;;
71294;SDS011;59080;31.686;73.862;2022-08-01T05:05:07;34.47;;;19.65;;
71294;SDS011;59080;31.686;73.862;2022-08-01T05:07:37;40.10;;;18.85;;
71294;SDS011;59080;31.686;73.862;2022-08-01T05:10:06;38.08;;;19.42;;
71294;SDS011;59080;31.686;73.862;2022-08-01T05:12:34;36.13;;;19.48;;
71294;SDS011;59080;31.686;73.862;2022-08-01T05:15:02;29.60;;;18.17;;
71294;SDS011;59080;31.686;73.862;2022-08-01T05:17:31;27.58;;;17.77;;
71294;SDS011;59080;31.686;73.862;2022-08-01T05:19:59;33.95;;;18.50;;
71294;SDS011;59080;31.686;73.862;2022-08-01T05:22:27;32.33;;;18.63;;
71294;SDS011;59080;31.686;73.862;2022-08-01T05:24:56;36.38;;;17.92;;
71294;SDS011;59080;31.686;73.862;2022-08-01T05:27:26;28.15;;;17.45;;
71294;SDS011;59080;31.686;73.862;2022-08-01T05:29:54;32.75;;;17.42;;
71294;SDS011;59080;31.686;73.862;2022-08-01T05:32:23;31.25;;;16.85;;
71294;SDS011;59080;31.686;73.862;2022-08-01T05:34:51;29.33;;;17.35;;
71294;SDS011;59080;31.686;73.862;2022-08-01T05:37:20;30.58;;;16.80;;
71294;SDS011;59080;31.686;73.862;2022-08-01T05:39:47;28.95;;;17.40;;
71294;SDS011;59080;31.686;73.862;2022-08-01T05:42:16;29.15;;;16.38;;
71294;SDS011;59080;31.686;73.862;2022-08-01T05:44:44;27.88;;;16.38;;
71294;SDS011;59080;31.686;73.862;2022-08-01T05:47:14;28.55;;;15.57;;
71294;SDS011;59080;31.686;73.862;2022-08-01T05:49:42;29.88;;;16.23;;
71294;SDS011;59080;31.686;73.862;2022-08-01T05:52:11;28.30;;;15.63;;
71294;SDS011;59080;31.686;73.862;2022-08-01T05:54:40;28.30;;;15.43;;
71294;SDS011;59080;31.686;73.862;2022-08-01T05:57:08;27.80;;;16.23;;
71294;SDS011;59080;31.686;73.862;2022-08-01T05:59:36;26.42;;;16.80;;
71294;SDS011;59080;31.686;73.862;2022-08-01T06:02:05;26.50;;;15.95;;
71294;SDS011;59080;31.686;73.862;2022-08-01T06:04:33;25.02;;;15.10;;
71294;SDS011;59080;31.686;73.862;2022-08-01T06:07:01;30.58;;;15.35;;
71294;SDS011;59080;31.686;73.862;2022-08-01T06:09:29;23.83;;;16.23;;
71294;SDS011;59080;31.686;73.862;2022-08-01T06:11:57;24.33;;;16.88;;
71294;SDS011;59080;31.686;73.862;2022-08-01T06:14:28;26.73;;;15.70;;
71294;SDS011;59080;31.686;73.862;2022-08-01T06:19:24;26.20;;;15.45;;
71294;SDS011;59080;31.686;73.862;2022-08-01T06:21:53;24.25;;;16.27;;
71294;SDS011;59080;31.686;73.862;2022-08-01T06:24:21;27.77;;;17.90;;
71294;SDS011;59080;31.686;73.862;2022-08-01T06:26:50;30.05;;;19.17;;
71294;SDS011;59080;31.686;73.862;2022-08-01T06:29:18;28.98;;;18.60;;
71294;SDS011;59080;31.686;73.862;2022-08-01T06:31:47;30.95;;;20.58;;
71294;SDS011;59080;31.686;73.862;2022-08-01T06:34:15;27.67;;;19.80;;
71294;SDS011;59080;31.686;73.862;2022-08-01T06:36:43;28.17;;;19.58;;
71294;SDS011;59080;31.686;73.862;2022-08-01T06:39:12;27.35;;;19.58;;
71294;SDS011;59080;31.686;73.862;2022-08-01T06:41:40;30.67;;;19.85;;
71294;SDS011;59080;31.686;73.862;2022-08-01T06:44:12;29.05;;;20.33;;
71294;SDS011;59080;31.686;73.862;2022-08-01T06:46:40;31.83;;;22.95;;
71294;SDS011;59080;31.686;73.862;2022-08-01T06:49:08;30.35;;;22.13;;
71294;SDS011;59080;31.686;73.862;2022-08-01T06:51:37;35.25;;;21.70;;
71294;SDS011;59080;31.686;73.862;2022-08-01T06:54:06;32.35;;;22.73;;
71294;SDS011;59080;31.686;73.862;2022-08-01T06:56:34;32.60;;;23.38;;
71294;SDS011;59080;31.686;73.862;2022-08-01T06:59:02;30.00;;;23.27;;
71294;SDS011;59080;31.686;73.862;2022-08-01T07:01:32;32.67;;;22.85;;
71294;SDS011;59080;31.686;73.862;2022-08-01T07:04:00;39.75;;;25.65;;
71294;SDS011;59080;31.686;73.862;2022-08-01T07:06:29;36.53;;;25.60;;
71294;SDS011;59080;31.686;73.862;2022-08-01T07:08:58;31.27;;;22.98;;
71294;SDS011;59080;31.686;73.862;2022-08-01T07:11:28;29.97;;;22.40;;
71294;SDS011;59080;31.686;73.862;2022-08-01T07:13:56;30.92;;;23.38;;
71294;SDS011;59080;31.686;73.862;2022-08-01T07:16:26;36.42;;;26.98;;
71294;SDS011;59080;31.686;73.862;2022-08-01T07:18:55;34.75;;;25.58;;
71294;SDS011;59080;31.686;73.862;2022-08-01T07:21:23;36.83;;;25.55;;
71294;SDS011;59080;31.686;73.862;2022-08-01T07:23:51;32.83;;;24.63;;
71294;SDS011;59080;31.686;73.862;2022-08-01T07:26:20;35.75;;;25.40;;
71294;SDS011;59080;31.686;73.862;2022-08-01T07:28:48;28.65;;;23.33;;
71294;SDS011;59080;31.686;73.862;2022-08-01T07:31:16;28.70;;;22.77;;
71294;SDS011;59080;31.686;73.862;2022-08-01T07:33:45;36.78;;;25.25;;
71294;SDS011;59080;31.686;73.862;2022-08-01T07:36:13;35.92;;;26.05;;
71294;SDS011;59080;31.686;73.862;2022-08-01T07:38:44;32.55;;;24.92;;
71294;SDS011;59080;31.686;73.862;2022-08-01T07:41:13;36.28;;;24.42;;
71294;SDS011;59080;31.686;73.862;2022-08-01T07:43:41;36.92;;;28.42;;
71294;SDS011;59080;31.686;73.862;2022-08-01T07:46:10;38.67;;;27.95;;
71294;SDS011;59080;31.686;73.862;2022-08-01T07:48:38;34.63;;;25.90;;
71294;SDS011;59080;31.686;73.862;2022-08-01T07:51:07;32.42;;;25.48;;
71294;SDS011;59080;31.686;73.862;2022-08-01T07:53:36;37.38;;;27.52;;
71294;SDS011;59080;31.686;73.862;2022-08-01T07:56:04;35.47;;;27.17;;
71294;SDS011;59080;31.686;73.862;2022-08-01T07:58:33;33.63;;;25.95;;
71294;SDS011;59080;31.686;73.862;2022-08-01T08:01:00;38.05;;;28.10;;
71294;SDS011;59080;31.686;73.862;2022-08-01T08:03:30;32.42;;;26.80;;
71294;SDS011;59080;31.686;73.862;2022-08-01T08:06:00;33.72;;;26.63;;
71294;SDS011;59080;31.686;73.862;2022-08-01T08:08:29;33.35;;;26.33;;
71294;SDS011;59080;31.686;73.862;2022-08-01T08:10:58;35.42;;;27.05;;
71294;SDS011;59080;31.686;73.862;2022-08-01T08:13:26;41.50;;;28.88;;
71294;SDS011;59080;31.686;73.862;2022-08-01T08:15:54;33.65;;;28.02;;
71294;SDS011;59080;31.686;73.862;2022-08-01T08:18:25;37.75;;;28.98;;
71294;SDS011;59080;31.686;73.862;2022-08-01T08:20:53;36.22;;;29.38;;
71294;SDS011;59080;31.686;73.862;2022-08-01T08:23:21;35.15;;;27.33;;
71294;SDS011;59080;31.686;73.862;2022-08-01T08:26:07;36.88;;;27.60;;
71294;SDS011;59080;31.686;73.862;2022-08-01T08:28:35;41.20;;;29.17;;
71294;SDS011;59080;31.686;73.862;2022-08-01T08:31:04;40.80;;;29.58;;
71294;SDS011;59080;31.686;73.862;2022-08-01T08:33:34;39.63;;;28.92;;
71294;SDS011;59080;31.686;73.862;2022-08-01T08:36:02;37.22;;;27.38;;
71294;SDS011;59080;31.686;73.862;2022-08-01T08:38:30;36.30;;;26.95;;
71294;SDS011;59080;31.686;73.862;2022-08-01T08:40:59;34.30;;;26.73;;
71294;SDS011;59080;31.686;73.862;2022-08-01T08:43:27;34.15;;;28.23;;
71294;SDS011;59080;31.686;73.862;2022-08-01T08:45:55;37.38;;;28.13;;
71294;SDS011;59080;31.686;73.862;2022-08-01T08:48:24;37.10;;;28.10;;
71294;SDS011;59080;31.686;73.862;2022-08-01T08:50:53;37.38;;;27.70;;
71294;SDS011;59080;31.686;73.862;2022-08-01T08:53:25;36.85;;;27.33;;
71294;SDS011;59080;31.686;73.862;2022-08-01T08:55:55;37.60;;;28.50;;
71294;SDS011;59080;31.686;73.862;2022-08-01T08:58:26;39.40;;;27.90;;
71294;SDS011;59080;31.686;73.862;2022-08-01T09:00:56;39.53;;;29.85;;
71294;SDS011;59080;31.686;73.862;2022-08-01T09:03:25;38.65;;;28.67;;
71294;SDS011;59080;31.686;73.862;2022-08-01T09:05:53;40.22;;;29.13;;
71294;SDS011;59080;31.686;73.862;2022-08-01T09:08:21;38.38;;;30.08;;
71294;SDS011;59080;31.686;73.862;2022-08-01T09:10:49;43.03;;;33.53;;
71294;SDS011;59080;31.686;73.862;2022-08-01T09:13:18;41.67;;;29.90;;
71294;SDS011;59080;31.686;73.862;2022-08-01T09:18:30;36.88;;;27.65;;
71294;SDS011;59080;31.686;73.862;2022-08-01T09:21:07;39.65;;;29.50;;
71294;SDS011;59080;31.686;73.862;2022-08-01T09:23:51;37.35;;;30.15;;
71294;SDS011;59080;31.686;73.862;2022-08-01T09:26:30;39.38;;;29.98;;
71294;SDS011;59080;31.686;73.862;2022-08-01T09:29:05;36.33;;;31.15;;
71294;SDS011;59080;31.686;73.862;2022-08-01T09:31:42;37.78;;;29.25;;
71294;SDS011;59080;31.686;73.862;2022-08-01T09:34:13;39.67;;;30.63;;
71294;SDS011;59080;31.686;73.862;2022-08-01T09:36:50;39.58;;;29.50;;
71294;SDS011;59080;31.686;73.862;2022-08-01T09:39:30;39.53;;;31.08;;
71294;SDS011;59080;31.686;73.862;2022-08-01T09:42:22;39.85;;;31.83;;
71294;SDS011;59080;31.686;73.862;2022-08-01T09:44:53;45.90;;;33.35;;
71294;SDS011;59080;31.686;73.862;2022-08-01T09:47:22;42.13;;;32.25;;
71294;SDS011;59080;31.686;73.862;2022-08-01T09:50:07;40.63;;;31.63;;
71294;SDS011;59080;31.686;73.862;2022-08-01T09:52:35;38.75;;;31.55;;
71294;SDS011;59080;31.686;73.862;2022-08-01T09:55:05;43.65;;;33.00;;
71294;SDS011;59080;31.686;73.862;2022-08-01T09:57:34;42.25;;;33.30;;
71294;SDS011;59080;31.686;73.862;2022-08-01T10:00:03;43.45;;;33.28;;
71294;SDS011;59080;31.686;73.862;2022-08-01T10:02:41;43.08;;;33.78;;
71294;SDS011;59080;31.686;73.862;2022-08-01T10:05:10;43.38;;;33.10;;
71294;SDS011;59080;31.686;73.862;2022-08-01T10:08:00;41.22;;;33.10;;
71294;SDS011;59080;31.686;73.862;2022-08-01T10:10:29;41.50;;;32.17;;
71294;SDS011;59080;31.686;73.862;2022-08-01T10:12:58;41.92;;;33.83;;
71294;SDS011;59080;31.686;73.862;2022-08-01T10:15:27;40.75;;;33.47;;
71294;SDS011;59080;31.686;73.862;2022-08-01T10:18:00;38.67;;;34.08;;
71294;SDS011;59080;31.686;73.862;2022-08-01T10:20:33;39.90;;;32.63;;
71294;SDS011;59080;31.686;73.862;2022-08-01T10:23:03;41.47;;;32.40;;
71294;SDS011;59080;31.686;73.862;2022-08-01T10:25:37;40.25;;;33.03;;
71294;SDS011;59080;31.686;73.862;2022-08-01T10:28:16;40.20;;;33.25;;
71294;SDS011;59080;31.686;73.862;2022-08-01T10:30:47;37.78;;;33.35;;
71294;SDS011;59080;31.686;73.862;2022-08-01T10:33:15;41.17;;;33.72;;
71294;SDS011;59080;31.686;73.862;2022-08-01T10:35:45;39.75;;;32.30;;
71294;SDS011;59080;31.686;73.862;2022-08-01T10:38:14;42.47;;;34.10;;
71294;SDS011;59080;31.686;73.862;2022-08-01T10:40:43;41.28;;;32.90;;
71294;SDS011;59080;31.686;73.862;2022-08-01T10:43:12;39.00;;;31.95;;
71294;SDS011;59080;31.686;73.862;2022-08-01T10:45:42;37.13;;;32.67;;
71294;SDS011;59080;31.686;73.862;2022-08-01T10:48:31;43.05;;;30.80;;
71294;SDS011;59080;31.686;73.862;2022-08-01T10:51:08;37.05;;;31.58;;
71294;SDS011;59080;31.686;73.862;2022-08-01T10:53:36;40.28;;;32.45;;
71294;SDS011;59080;31.686;73.862;2022-08-01T10:56:15;38.67;;;33.00;;
71294;SDS011;59080;31.686;73.862;2022-08-01T10:58:44;40.25;;;32.40;;
71294;SDS011;59080;31.686;73.862;2022-08-01T11:03:58;35.90;;;32.00;;
71294;SDS011;59080;31.686;73.862;2022-08-01T11:17:37;39.47;;;32.60;;
71294;SDS011;59080;31.686;73.862;2022-08-01T11:20:15;38.03;;;32.40;;
71294;SDS011;59080;31.686;73.862;2022-08-01T11:33:17;39.92;;;32.28;;
71294;SDS011;59080;31.686;73.862;2022-08-01T11:38:42;36.33;;;30.98;;
71294;SDS011;59080;31.686;73.862;2022-08-01T11:44:06;36.63;;;32.17;;
71294;SDS011;59080;31.686;73.862;2022-08-01T11:46:56;37.40;;;31.38;;
71294;SDS011;59080;31.686;73.862;2022-08-01T11:49:43;36.10;;;30.05;;
71294;SDS011;59080;31.686;73.862;2022-08-01T11:57:27;35.30;;;29.70;;
71294;SDS011;59080;31.686;73.862;2022-08-01T12:00:04;37.25;;;31.85;;
71294;SDS011;59080;31.686;73.862;2022-08-01T12:02:40;33.45;;;29.70;;
71294;SDS011;59080;31.686;73.862;2022-08-01T12:05:10;34.83;;;29.95;;
71294;SDS011;59080;31.686;73.862;2022-08-01T12:10:13;37.88;;;29.83;;
71294;SDS011;59080;31.686;73.862;2022-08-01T12:12:46;32.47;;;28.90;;
71294;SDS011;59080;31.686;73.862;2022-08-01T12:15:21;36.05;;;28.83;;
71294;SDS011;59080;31.686;73.862;2022-08-01T12:18:01;36.20;;;30.35;;
71294;SDS011;59080;31.686;73.862;2022-08-01T12:20:36;32.97;;;29.35;;
71294;SDS011;59080;31.686;73.862;2022-08-01T12:23:07;41.08;;;31.58;;
71294;SDS011;59080;31.686;73.862;2022-08-01T12:25:37;37.35;;;31.13;;
71294;SDS011;59080;31.686;73.862;2022-08-01T12:28:07;35.20;;;29.48;;
71294;SDS011;59080;31.686;73.862;2022-08-01T12:30:40;39.35;;;30.90;;
71294;SDS011;59080;31.686;73.862;2022-08-01T12:33:09;37.13;;;29.92;;
71294;SDS011;59080;31.686;73.862;2022-08-01T12:35:43;35.30;;;29.85;;
71294;SDS011;59080;31.686;73.862;2022-08-01T12:38:16;32.95;;;29.30;;
71294;SDS011;59080;31.686;73.862;2022-08-01T12:40:49;34.33;;;29.95;;
71294;SDS011;59080;31.686;73.862;2022-08-01T12:43:18;31.58;;;28.20;;
71294;SDS011;59080;31.686;73.862;2022-08-01T12:45:49;32.83;;;28.95;;
71294;SDS011;59080;31.686;73.862;2022-08-01T12:48:18;31.65;;;28.05;;
71294;SDS011;59080;31.686;73.862;2022-08-01T12:50:47;37.05;;;28.05;;
71294;SDS011;59080;31.686;73.862;2022-08-01T12:53:20;32.75;;;27.40;;
71294;SDS011;59080;31.686;73.862;2022-08-01T12:55:50;34.42;;;28.20;;
71294;SDS011;59080;31.686;73.862;2022-08-01T12:58:21;33.95;;;28.45;;
71294;SDS011;59080;31.686;73.862;2022-08-01T13:01:01;32.13;;;27.98;;
71294;SDS011;59080;31.686;73.862;2022-08-01T13:03:32;33.08;;;28.95;;
71294;SDS011;59080;31.686;73.862;2022-08-01T13:06:00;34.75;;;29.55;;
71294;SDS011;59080;31.686;73.862;2022-08-01T13:08:36;33.75;;;28.08;;
71294;SDS011;59080;31.686;73.862;2022-08-01T13:11:05;35.40;;;28.98;;
71294;SDS011;59080;31.686;73.862;2022-08-01T13:13:43;32.72;;;28.33;;
71294;SDS011;59080;31.686;73.862;2022-08-01T13:16:20;33.15;;;28.17;;
71294;SDS011;59080;31.686;73.862;2022-08-01T13:18:54;35.13;;;29.35;;
71294;SDS011;59080;31.686;73.862;2022-08-01T13:21:24;36.70;;;28.70;;
71294;SDS011;59080;31.686;73.862;2022-08-01T13:24:09;31.17;;;27.88;;
71294;SDS011;59080;31.686;73.862;2022-08-01T13:29:19;32.38;;;28.85;;
71294;SDS011;59080;31.686;73.862;2022-08-01T13:31:49;31.13;;;27.88;;
71294;SDS011;59080;31.686;73.862;2022-08-01T13:34:17;33.78;;;28.80;;
71294;SDS011;59080;31.686;73.862;2022-08-01T13:36:56;32.38;;;28.13;;
71294;SDS011;59080;31.686;73.862;2022-08-01T13:39:29;31.77;;;28.33;;
71294;SDS011;59080;31.686;73.862;2022-08-01T13:42:12;34.92;;;30.08;;
71294;SDS011;59080;31.686;73.862;2022-08-01T13:44:42;32.13;;;28.63;;
71294;SDS011;59080;31.686;73.862;2022-08-01T13:47:14;34.33;;;29.70;;
71294;SDS011;59080;31.686;73.862;2022-08-01T13:49:44;36.97;;;30.30;;
71294;SDS011;59080;31.686;73.862;2022-08-01T13:52:14;34.13;;;29.27;;
71294;SDS011;59080;31.686;73.862;2022-08-01T13:54:42;33.38;;;29.30;;
71294;SDS011;59080;31.686;73.862;2022-08-01T13:57:11;36.30;;;29.60;;
71294;SDS011;59080;31.686;73.862;2022-08-01T13:59:40;35.10;;;31.30;;
71294;SDS011;59080;31.686;73.862;2022-08-01T14:02:09;35.10;;;30.10;;
71294;SDS011;59080;31.686;73.862;2022-08-01T14:04:38;35.58;;;31.08;;
71294;SDS011;59080;31.686;73.862;2022-08-01T14:07:06;45.25;;;34.30;;
71294;SDS011;59080;31.686;73.862;2022-08-01T14:09:34;49.78;;;37.67;;
71294;SDS011;59080;31.686;73.862;2022-08-01T14:12:02;46.85;;;36.40;;
71294;SDS011;59080;31.686;73.862;2022-08-01T14:14:31;52.92;;;39.58;;
71294;SDS011;59080;31.686;73.862;2022-08-01T14:16:59;49.95;;;39.53;;
71294;SDS011;59080;31.686;73.862;2022-08-01T14:19:28;49.88;;;38.38;;
71294;SDS011;59080;31.686;73.862;2022-08-01T14:21:56;49.05;;;40.45;;
71294;SDS011;59080;31.686;73.862;2022-08-01T14:24:25;55.05;;;40.88;;
71294;SDS011;59080;31.686;73.862;2022-08-01T14:26:54;57.50;;;38.80;;
71294;SDS011;59080;31.686;73.862;2022-08-01T14:29:24;47.90;;;39.03;;
71294;SDS011;59080;31.686;73.862;2022-08-01T14:31:54;51.58;;;38.47;;
71294;SDS011;59080;31.686;73.862;2022-08-01T14:34:27;47.50;;;38.95;;
71294;SDS011;59080;31.686;73.862;2022-08-01T14:36:56;49.47;;;37.80;;
71294;SDS011;59080;31.686;73.862;2022-08-01T14:39:25;55.88;;;38.35;;
71294;SDS011;59080;31.686;73.862;2022-08-01T14:41:53;47.40;;;38.40;;
71294;SDS011;59080;31.686;73.862;2022-08-01T14:44:25;47.85;;;38.67;;
71294;SDS011;59080;31.686;73.862;2022-08-01T14:46:56;50.25;;;37.55;;
71294;SDS011;59080;31.686;73.862;2022-08-01T14:49:24;43.83;;;36.10;;
71294;SDS011;59080;31.686;73.862;2022-08-01T14:51:53;43.28;;;34.53;;
71294;SDS011;59080;31.686;73.862;2022-08-01T14:54:23;41.65;;;33.65;;
71294;SDS011;59080;31.686;73.862;2022-08-01T14:56:54;44.65;;;34.78;;
71294;SDS011;59080;31.686;73.862;2022-08-01T14:59:24;43.65;;;35.25;;
71294;SDS011;59080;31.686;73.862;2022-08-01T15:01:52;44.22;;;33.83;;
71294;SDS011;59080;31.686;73.862;2022-08-01T15:04:21;44.50;;;33.40;;
71294;SDS011;59080;31.686;73.862;2022-08-01T15:06:50;37.60;;;32.03;;
71294;SDS011;59080;31.686;73.862;2022-08-01T15:09:20;43.30;;;33.80;;
71294;SDS011;59080;31.686;73.862;2022-08-01T15:11:49;39.17;;;32.20;;
71294;SDS011;59080;31.686;73.862;2022-08-01T15:14:18;36.97;;;32.08;;
71294;SDS011;59080;31.686;73.862;2022-08-01T15:17:07;38.45;;;31.38;;
71294;SDS011;59080;31.686;73.862;2022-08-01T15:19:40;36.72;;;29.73;;
71294;SDS011;59080;31.686;73.862;2022-08-01T15:22:11;37.30;;;31.15;;
71294;SDS011;59080;31.686;73.862;2022-08-01T15:24:41;37.63;;;31.80;;
71294;SDS011;59080;31.686;73.862;2022-08-01T15:27:09;39.58;;;32.35;;
71294;SDS011;59080;31.686;73.862;2022-08-01T15:29:38;39.50;;;31.50;;
71294;SDS011;59080;31.686;73.862;2022-08-01T15:32:11;40.80;;;32.75;;